createdAt,value
2017-11-28T00:02:01.487Z,5.40
2017-11-28T00:04:29.535Z,8.57
2017-11-28T00:06:58.425Z,7.43
2017-11-28T00:09:27.270Z,7.57
2017-11-28T00:11:55.374Z,7.17
2017-11-28T00:14:23.472Z,7.20
2017-11-28T00:16:52.331Z,8.93
2017-11-28T00:19:20.487Z,6.67
2017-11-28T00:21:48.556Z,8.27
2017-11-28T00:24:16.639Z,6.80
2017-11-28T00:26:44.762Z,11.90
2017-11-28T00:29:12.851Z,5.83
2017-11-28T00:31:40.955Z,9.30
2017-11-28T00:34:09.070Z,6.00
2017-11-28T00:36:37.927Z,6.50
2017-11-28T00:39:06.015Z,9.13
2017-11-28T00:41:34.134Z,8.13
2017-11-28T00:44:02.299Z,6.43
2017-11-28T00:46:30.484Z,7.83
2017-11-28T00:48:58.603Z,7.03
2017-11-28T00:51:26.768Z,6.13
2017-11-28T00:53:54.847Z,5.80
2017-11-28T00:56:22.960Z,6.47
2017-11-28T00:58:51.062Z,6.27
2017-11-28T01:01:19.083Z,9.70
2017-11-28T01:03:47.909Z,6.53
2017-11-28T01:06:15.970Z,6.20
2017-11-28T01:08:44.058Z,7.83
2017-11-28T01:11:12.137Z,8.27
2017-11-28T01:13:40.250Z,7.03
2017-11-28T01:16:09.113Z,9.33
2017-11-28T01:18:37.599Z,8.13
2017-11-28T01:21:05.711Z,9.90
2017-11-28T01:23:34.565Z,9.90
2017-11-28T01:26:02.715Z,6.90
2017-11-28T01:28:30.819Z,7.60
2017-11-28T01:30:58.915Z,7.13
2017-11-28T01:33:27.795Z,5.30
2017-11-28T01:35:55.881Z,7.37
2017-11-28T01:38:23.984Z,7.23
2017-11-28T01:40:52.098Z,7.57
2017-11-28T01:43:20.231Z,6.77
2017-11-28T01:45:48.322Z,7.50
2017-11-28T01:48:16.418Z,7.33
2017-11-28T01:50:44.515Z,6.23
2017-11-28T01:53:13.385Z,6.67
2017-11-28T01:55:41.513Z,6.33
2017-11-28T01:58:09.633Z,8.53
2017-11-28T02:00:37.713Z,9.13
2017-11-28T02:03:06.540Z,6.07
2017-11-28T02:05:34.865Z,7.67
2017-11-28T02:08:03.004Z,5.83
2017-11-28T02:10:31.099Z,6.00
2017-11-28T02:12:59.211Z,5.37
2017-11-28T02:15:28.090Z,6.83
2017-11-28T02:17:56.951Z,6.50
2017-11-28T02:20:25.034Z,7.43
2017-11-28T02:22:53.141Z,5.67
2017-11-28T02:25:22.023Z,6.60
2017-11-28T02:27:50.949Z,6.00
2017-11-28T02:30:19.042Z,5.40
2017-11-28T02:32:47.889Z,5.43
2017-11-28T02:35:15.995Z,6.30
2017-11-28T02:37:44.127Z,7.00
2017-11-28T02:40:12.985Z,5.87
2017-11-28T02:42:41.106Z,4.90
2017-11-28T02:45:09.224Z,5.37
2017-11-28T02:47:37.341Z,6.20
2017-11-28T02:50:10.930Z,6.83
2017-11-28T02:52:39.835Z,7.57
2017-11-28T02:58:16.046Z,5.93
2017-11-28T03:00:46.838Z,5.10
2017-11-28T03:03:14.942Z,5.43
2017-11-28T03:05:43.052Z,4.57
2017-11-28T03:08:11.401Z,5.30
2017-11-28T03:10:57.107Z,6.13
2017-11-28T03:13:26.057Z,6.13
2017-11-28T03:16:08.971Z,5.63
2017-11-28T03:18:44.510Z,6.23
2017-11-28T03:21:17.246Z,7.00
2017-11-28T03:23:56.090Z,6.07
2017-11-28T03:26:25.979Z,5.53
2017-11-28T03:28:59.821Z,6.80
2017-11-28T03:31:37.855Z,5.83
2017-11-28T03:34:06.947Z,5.03
2017-11-28T03:36:35.827Z,5.63
2017-11-28T03:39:03.993Z,6.20
2017-11-28T03:41:32.863Z,4.83
2017-11-28T03:44:00.975Z,4.63
2017-11-28T03:46:35.620Z,6.25
2017-11-28T03:49:04.678Z,5.35
2017-11-28T03:51:33.577Z,5.13
2017-11-28T03:54:02.466Z,4.53
2017-11-28T03:56:31.342Z,7.13
2017-11-28T03:59:00.262Z,6.53
2017-11-28T04:01:28.378Z,8.38
2017-11-28T04:03:56.491Z,3.97
2017-11-28T04:06:25.382Z,5.23
2017-11-28T04:08:54.255Z,6.95
2017-11-28T04:11:22.339Z,4.00
2017-11-28T04:13:51.191Z,10.13
2017-11-28T04:16:19.283Z,4.43
2017-11-28T04:18:47.399Z,5.95
2017-11-28T04:21:15.494Z,4.25
2017-11-28T04:23:43.608Z,4.80
2017-11-28T04:26:11.702Z,8.05
2017-11-28T04:28:40.551Z,6.70
2017-11-28T04:31:08.651Z,5.97
2017-11-28T04:33:37.518Z,4.97
2017-11-28T04:36:05.628Z,5.30
2017-11-28T04:38:34.508Z,6.10
2017-11-28T04:41:03.396Z,5.80
2017-11-28T04:43:31.484Z,5.43
2017-11-28T04:45:59.582Z,3.53
2017-11-28T04:48:27.692Z,5.03
2017-11-28T04:50:55.834Z,7.47
2017-11-28T04:53:23.936Z,9.20
2017-11-28T04:55:52.073Z,5.50
2017-11-28T04:58:20.223Z,5.43
2017-11-28T05:00:48.334Z,6.10
2017-11-28T05:03:16.449Z,10.03
2017-11-28T05:05:45.326Z,4.32
2017-11-28T05:08:13.443Z,3.80
2017-11-28T05:10:41.547Z,5.95
2017-11-28T05:13:09.644Z,6.40
2017-11-28T05:15:37.829Z,6.65
2017-11-28T05:18:05.920Z,5.65
2017-11-28T05:20:34.770Z,5.37
2017-11-28T05:23:02.907Z,4.72
2017-11-28T05:25:31.011Z,5.80
2017-11-28T05:27:59.210Z,4.78
2017-11-28T05:30:27.407Z,6.85
2017-11-28T05:32:55.495Z,7.47
2017-11-28T05:35:23.575Z,4.87
2017-11-28T05:37:51.660Z,5.20
2017-11-28T05:40:19.809Z,9.60
2017-11-28T05:42:47.894Z,6.77
2017-11-28T05:45:15.991Z,5.37
2017-11-28T05:47:44.071Z,4.90
2017-11-28T05:50:12.174Z,5.23
2017-11-28T05:52:41.043Z,4.03
2017-11-28T05:55:09.141Z,6.23
2017-11-28T05:57:37.995Z,5.33
2017-11-28T06:00:06.224Z,5.67
2017-11-28T06:02:34.312Z,4.77
2017-11-28T06:05:02.396Z,6.17
2017-11-28T06:07:30.958Z,5.85
2017-11-28T06:09:59.082Z,5.90
2017-11-28T06:12:27.184Z,4.20
2017-11-28T06:14:55.290Z,6.13
2017-11-28T06:17:23.415Z,5.43
2017-11-28T06:19:52.347Z,5.23
2017-11-28T06:22:20.465Z,6.10
2017-11-28T06:24:48.566Z,7.00
2017-11-28T06:27:17.430Z,7.13
2017-11-28T06:29:45.590Z,5.77
2017-11-28T06:32:13.834Z,5.23
2017-11-28T06:34:41.935Z,5.53
2017-11-28T06:37:10.043Z,8.77
2017-11-28T06:39:38.918Z,6.80
2017-11-28T06:42:21.802Z,7.23
2017-11-28T06:44:49.886Z,5.10
2017-11-28T06:47:17.998Z,8.00
2017-11-28T06:49:46.874Z,4.00
2017-11-28T06:52:14.975Z,5.85
2017-11-28T06:54:43.095Z,6.05
2017-11-28T06:57:11.174Z,7.10
2017-11-28T06:59:39.910Z,4.37
2017-11-28T07:02:08.821Z,10.70
2017-11-28T07:04:37.683Z,5.03
2017-11-28T07:07:06.556Z,5.87
2017-11-28T07:09:34.686Z,12.35
2017-11-28T07:12:02.758Z,6.70
2017-11-28T07:14:30.888Z,5.47
2017-11-28T07:17:00.406Z,5.07
2017-11-28T07:19:28.596Z,6.55
2017-11-28T07:21:57.497Z,7.82
2017-11-28T07:24:26.199Z,10.00
2017-11-28T07:26:54.292Z,9.07
2017-11-28T07:29:22.393Z,9.98
2017-11-28T07:31:51.265Z,6.62
2017-11-28T07:34:20.156Z,14.60
2017-11-28T07:36:48.629Z,5.10
2017-11-28T07:39:17.297Z,11.27
2017-11-28T07:41:45.414Z,7.10
2017-11-28T07:44:14.260Z,9.23
2017-11-28T07:46:42.386Z,6.65
2017-11-28T07:49:10.570Z,5.90
2017-11-28T07:51:39.589Z,7.55
2017-11-28T07:54:07.782Z,6.53
2017-11-28T07:56:35.884Z,6.78
2017-11-28T07:59:04.772Z,8.88
2017-11-28T08:01:33.937Z,7.10
2017-11-28T08:04:02.867Z,6.70
2017-11-28T08:06:31.796Z,17.62
2017-11-28T08:09:00.828Z,17.87
2017-11-28T08:11:29.070Z,6.97
2017-11-28T08:13:57.583Z,5.00
2017-11-28T08:16:25.675Z,5.93
2017-11-28T08:18:55.345Z,6.07
2017-11-28T08:21:23.681Z,6.73
2017-11-28T08:23:52.656Z,5.20
2017-11-28T08:26:20.819Z,5.90
2017-11-28T08:28:48.982Z,5.27
2017-11-28T08:31:17.215Z,11.63
2017-11-28T08:33:45.371Z,30.30
2017-11-28T08:36:14.296Z,7.40
2017-11-28T08:38:43.385Z,5.40
2017-11-28T08:41:12.319Z,12.87
2017-11-28T08:43:40.464Z,8.37
2017-11-28T08:46:08.627Z,8.40
2017-11-28T08:48:36.783Z,7.50
2017-11-28T08:51:04.991Z,8.30
2017-11-28T08:53:33.102Z,6.77
2017-11-28T08:56:01.197Z,5.70
2017-11-28T08:58:29.318Z,4.63
2017-11-28T09:00:57.406Z,7.07
2017-11-28T09:03:25.528Z,3.60
2017-11-28T09:05:53.650Z,3.90
2017-11-28T09:08:21.738Z,5.40
2017-11-28T09:10:50.628Z,2.77
2017-11-28T09:13:18.724Z,6.60
2017-11-28T09:15:47.254Z,6.67
2017-11-28T09:18:15.568Z,3.00
2017-11-28T09:20:44.402Z,6.47
2017-11-28T09:23:13.403Z,6.33
2017-11-28T09:25:42.379Z,4.63
2017-11-28T09:28:10.523Z,4.70
2017-11-28T09:30:39.387Z,3.63
2017-11-28T09:33:07.483Z,4.43
2017-11-28T09:35:36.404Z,3.00
2017-11-28T09:38:04.542Z,5.10
2017-11-28T09:40:33.452Z,4.03
2017-11-28T09:43:01.547Z,3.77
2017-11-28T09:45:29.661Z,4.30
2017-11-28T09:47:57.758Z,8.63
2017-11-28T09:50:26.635Z,2.90
2017-11-28T09:52:54.768Z,4.67
2017-11-28T09:55:22.899Z,3.67
2017-11-28T09:57:51.738Z,6.23
2017-11-28T10:00:19.836Z,3.80
2017-11-28T10:02:47.946Z,5.43
2017-11-28T10:05:16.019Z,4.57
2017-11-28T10:07:44.123Z,7.30
2017-11-28T10:10:12.692Z,3.80
2017-11-28T10:12:42.429Z,3.00
2017-11-28T10:15:10.532Z,3.70
2017-11-28T10:17:39.459Z,4.13
2017-11-28T10:20:07.662Z,3.03
2017-11-28T10:22:36.463Z,7.70
2017-11-28T10:25:04.552Z,4.87
2017-11-28T10:27:33.489Z,6.13
2017-11-28T10:30:01.833Z,5.20
2017-11-28T10:32:32.091Z,5.80
2017-11-28T10:35:00.180Z,5.07
2017-11-28T10:37:28.319Z,3.17
2017-11-28T10:39:56.747Z,5.03
2017-11-28T10:42:25.112Z,5.83
2017-11-28T10:44:54.553Z,4.70
2017-11-28T10:47:22.646Z,5.00
2017-11-28T10:49:51.777Z,4.80
2017-11-28T10:52:19.906Z,6.33
2017-11-28T10:54:48.795Z,4.20
2017-11-28T10:57:17.762Z,5.83
2017-11-28T10:59:45.888Z,7.63
2017-11-28T11:02:14.144Z,8.53
2017-11-28T11:04:43.263Z,3.67
2017-11-28T11:07:11.320Z,6.23
2017-11-28T11:09:40.951Z,9.13
2017-11-28T11:12:09.872Z,4.40
2017-11-28T11:14:37.924Z,3.53
2017-11-28T11:17:06.465Z,7.27
2017-11-28T11:19:35.331Z,10.63
2017-11-28T11:22:03.378Z,6.37
2017-11-28T11:24:31.506Z,10.07
2017-11-28T11:27:00.949Z,30.43
2017-11-28T11:29:29.430Z,15.10
2017-11-28T11:31:57.560Z,17.30
2017-11-28T11:34:26.466Z,18.33
2017-11-28T11:36:56.260Z,16.33
2017-11-28T11:39:24.454Z,22.37
2017-11-28T11:41:52.682Z,18.43
2017-11-28T11:44:21.092Z,14.27
2017-11-28T11:46:49.968Z,73.90
2017-11-28T11:49:18.035Z,26.30
2017-11-28T11:51:46.918Z,16.00
2017-11-28T11:54:15.062Z,31.73
2017-11-28T11:56:44.001Z,57.17
2017-11-28T11:59:12.884Z,15.50
2017-11-28T12:01:41.000Z,19.00
2017-11-28T12:04:09.164Z,12.43
2017-11-28T12:06:37.255Z,7.43
2017-11-28T12:09:05.363Z,9.13
2017-11-28T12:11:33.519Z,6.80
2017-11-28T12:14:01.730Z,9.60
2017-11-28T12:16:30.786Z,12.47
2017-11-28T12:18:59.245Z,12.23
2017-11-28T12:21:28.283Z,6.70
2017-11-28T12:23:56.399Z,8.37
2017-11-28T12:26:24.750Z,7.37
2017-11-28T12:28:53.108Z,12.10
2017-11-28T12:31:21.575Z,15.63
2017-11-28T12:33:49.740Z,13.10
2017-11-28T12:36:18.371Z,13.60
2017-11-28T12:38:47.296Z,13.03
2017-11-28T12:41:16.099Z,12.23
2017-11-28T12:43:44.239Z,9.37
2017-11-28T12:46:13.130Z,9.80
2017-11-28T12:48:42.003Z,11.50
2017-11-28T12:51:10.108Z,8.83
2017-11-28T12:53:38.199Z,22.33
2017-11-28T12:56:06.330Z,15.40
2017-11-28T12:58:35.325Z,22.57
2017-11-28T13:01:05.548Z,13.97
2017-11-28T13:03:33.724Z,12.37
2017-11-28T13:06:02.623Z,13.43
2017-11-28T13:08:30.997Z,14.80
2017-11-28T13:10:59.863Z,16.13
2017-11-28T13:13:27.983Z,18.80
2017-11-28T13:15:56.338Z,19.33
2017-11-28T13:18:25.219Z,16.20
2017-11-28T13:20:53.336Z,18.00
2017-11-28T13:23:21.419Z,19.60
2017-11-28T13:25:49.544Z,18.07
2017-11-28T13:28:18.411Z,14.60
2017-11-28T13:30:46.558Z,15.50
2017-11-28T13:33:14.705Z,20.03
2017-11-28T13:35:42.825Z,14.07
2017-11-28T13:38:10.961Z,31.40
2017-11-28T13:40:39.076Z,15.67
2017-11-28T13:43:07.151Z,17.23
2017-11-28T13:45:35.305Z,16.50
2017-11-28T13:48:03.417Z,16.30
2017-11-28T13:50:32.355Z,14.57
2017-11-28T13:53:00.500Z,20.17
2017-11-28T13:55:29.360Z,19.00
2017-11-28T13:57:57.452Z,19.53
2017-11-28T14:00:25.606Z,19.07
2017-11-28T14:02:53.763Z,17.90
2017-11-28T14:05:21.896Z,21.83
2017-11-28T14:07:49.927Z,21.27
2017-11-28T14:10:18.020Z,25.40
2017-11-28T14:12:46.042Z,15.67
2017-11-28T14:15:14.374Z,16.03
2017-11-28T14:17:42.620Z,18.53
2017-11-28T14:20:15.428Z,16.90
2017-11-28T14:22:49.904Z,21.83
2017-11-28T14:25:23.990Z,17.53
2017-11-28T14:28:02.934Z,20.20
2017-11-28T14:30:34.990Z,16.47
2017-11-28T14:33:05.631Z,22.07
2017-11-28T14:35:39.476Z,18.13
2017-11-28T14:38:07.736Z,16.80
2017-11-28T14:40:36.573Z,15.63
2017-11-28T14:46:10.104Z,17.47
2017-11-28T14:48:46.662Z,27.60
2017-11-28T14:51:29.723Z,20.73
2017-11-28T14:54:04.332Z,27.70
2017-11-28T14:56:32.630Z,21.87
2017-11-28T14:59:06.331Z,25.27
2017-11-28T15:01:36.292Z,21.10
2017-11-28T15:04:10.259Z,112.87
2017-11-28T15:06:44.601Z,164.87
2017-11-28T15:09:22.989Z,127.10
2017-11-28T15:12:00.214Z,71.67
2017-11-28T15:14:30.976Z,40.57
2017-11-28T15:17:15.501Z,28.60
2017-11-28T15:19:46.340Z,23.37
2017-11-28T15:22:32.547Z,20.67
2017-11-28T15:25:21.476Z,23.93
2017-11-28T15:27:51.009Z,22.77
2017-11-28T15:30:20.438Z,19.33
2017-11-28T15:32:49.068Z,18.20
2017-11-28T15:35:17.764Z,25.00
2017-11-28T15:37:45.898Z,19.43
2017-11-28T15:40:14.196Z,20.40
2017-11-28T15:42:43.215Z,18.17
2017-11-28T15:45:11.428Z,19.13
2017-11-28T15:47:39.540Z,16.03
2017-11-28T15:50:07.743Z,20.77
2017-11-28T15:52:35.901Z,28.20
2017-11-28T15:55:04.998Z,17.93
2017-11-28T15:57:33.584Z,21.63
2017-11-28T16:00:01.706Z,23.70
2017-11-28T16:02:29.986Z,26.13
2017-11-28T16:04:59.797Z,27.47
2017-11-28T16:07:28.710Z,21.97
2017-11-28T16:09:57.079Z,24.93
2017-11-28T16:12:26.177Z,20.90
2017-11-28T16:14:54.696Z,21.77
2017-11-28T16:17:23.575Z,23.07
2017-11-28T16:19:51.793Z,18.60
2017-11-28T16:22:20.671Z,18.80
2017-11-28T16:24:48.796Z,21.07
2017-11-28T16:27:16.947Z,18.37
2017-11-28T16:29:45.080Z,18.83
2017-11-28T16:32:13.218Z,20.67
2017-11-28T16:34:41.314Z,26.87
2017-11-28T16:37:09.425Z,23.73
2017-11-28T16:39:38.317Z,23.83
2017-11-28T16:42:07.218Z,24.97
2017-11-28T16:44:35.278Z,26.83
2017-11-28T16:47:04.199Z,25.90
2017-11-28T16:49:32.357Z,24.93
2017-11-28T16:52:00.417Z,22.40
2017-11-28T16:54:29.323Z,22.17
2017-11-28T16:56:57.445Z,21.30
2017-11-28T16:59:25.657Z,22.23
2017-11-28T17:01:53.818Z,21.80
2017-11-28T17:04:22.685Z,27.80
2017-11-28T17:06:51.493Z,20.87
2017-11-28T17:09:20.521Z,22.37
2017-11-28T17:11:48.592Z,24.23
2017-11-28T17:14:17.727Z,23.70
2017-11-28T17:16:46.904Z,20.10
2017-11-28T17:19:15.075Z,21.43
2017-11-28T17:21:43.279Z,28.83
2017-11-28T17:24:11.466Z,25.27
2017-11-28T17:26:40.555Z,22.67
2017-11-28T17:29:08.642Z,23.07
2017-11-28T17:31:36.763Z,28.37
2017-11-28T17:34:04.976Z,19.67
2017-11-28T17:36:33.060Z,27.30
2017-11-28T17:39:01.165Z,22.10
2017-11-28T17:41:29.696Z,22.13
2017-11-28T17:43:57.839Z,22.60
2017-11-28T17:46:25.959Z,21.40
2017-11-28T17:48:54.092Z,19.83
2017-11-28T17:51:22.213Z,19.07
2017-11-28T17:53:51.072Z,18.03
2017-11-28T17:56:19.201Z,17.80
2017-11-28T17:58:47.318Z,23.57
2017-11-28T18:01:15.513Z,22.17
2017-11-28T18:03:43.634Z,21.87
2017-11-28T18:06:11.778Z,22.43
2017-11-28T18:08:40.672Z,27.97
2017-11-28T18:11:09.635Z,24.30
2017-11-28T18:13:37.769Z,26.27
2017-11-28T18:16:06.078Z,28.53
2017-11-28T18:18:34.238Z,36.27
2017-11-28T18:21:02.315Z,25.83
2017-11-28T18:23:30.459Z,33.93
2017-11-28T18:25:58.567Z,26.43
2017-11-28T18:28:26.694Z,24.50
2017-11-28T18:30:54.820Z,19.50
2017-11-28T18:33:22.911Z,26.23
2017-11-28T18:35:50.998Z,21.13
2017-11-28T18:38:19.874Z,23.93
2017-11-28T18:40:47.956Z,21.30
2017-11-28T18:43:16.817Z,24.93
2017-11-28T18:45:44.934Z,19.60
2017-11-28T18:48:13.058Z,18.73
2017-11-28T18:50:41.176Z,24.93
2017-11-28T18:53:10.047Z,21.20
2017-11-28T18:55:38.962Z,21.17
2017-11-28T18:58:07.112Z,19.30
2017-11-28T19:00:35.206Z,18.50
2017-11-28T19:03:03.303Z,23.27
2017-11-28T19:05:31.392Z,26.40
2017-11-28T19:07:59.548Z,23.70
2017-11-28T19:10:27.658Z,25.77
2017-11-28T19:12:55.772Z,30.50
2017-11-28T19:15:23.890Z,22.70
2017-11-28T19:17:51.998Z,25.40
2017-11-28T19:20:20.845Z,26.87
2017-11-28T19:22:49.071Z,39.57
2017-11-28T19:25:17.913Z,77.53
2017-11-28T19:27:46.004Z,45.70
2017-11-28T19:30:14.151Z,27.70
2017-11-28T19:32:42.250Z,27.30
2017-11-28T19:35:10.368Z,26.60
2017-11-28T19:37:38.507Z,33.03
2017-11-28T19:40:06.643Z,23.03
2017-11-28T19:42:34.773Z,24.23
2017-11-28T19:45:03.675Z,20.53
2017-11-28T19:47:31.719Z,27.23
2017-11-28T19:49:59.834Z,27.57
2017-11-28T19:52:27.965Z,27.80
2017-11-28T19:54:56.835Z,26.93
2017-11-28T19:57:24.942Z,25.93
2017-11-28T19:59:53.889Z,25.00
2017-11-28T20:02:21.962Z,31.23
2017-11-28T20:04:50.034Z,26.33
2017-11-28T20:07:18.060Z,25.97
2017-11-28T20:09:46.899Z,25.80
2017-11-28T20:12:15.096Z,26.70
2017-11-28T20:14:43.461Z,27.40
2017-11-28T20:17:11.665Z,24.53
2017-11-28T20:19:40.559Z,31.93
2017-11-28T20:22:09.522Z,22.67
2017-11-28T20:24:37.676Z,27.77
2017-11-28T20:27:05.787Z,25.73
2017-11-28T20:29:33.936Z,29.50
2017-11-28T20:32:02.138Z,25.77
2017-11-28T20:34:31.028Z,28.60
2017-11-28T20:36:59.940Z,27.17
2017-11-28T20:39:28.850Z,31.83
2017-11-28T20:41:56.963Z,30.90
2017-11-28T20:44:25.094Z,25.90
2017-11-28T20:46:53.257Z,25.10
2017-11-28T20:49:26.957Z,30.17
2017-11-28T20:51:55.164Z,27.17
2017-11-28T20:54:23.307Z,27.87
2017-11-28T20:56:51.399Z,24.30
2017-11-28T20:59:19.551Z,27.63
2017-11-28T21:01:47.664Z,31.30
2017-11-28T21:04:15.790Z,30.37
2017-11-28T21:06:45.116Z,28.07
2017-11-28T21:09:13.249Z,24.83
2017-11-28T21:11:42.132Z,26.10
2017-11-28T21:14:10.340Z,23.80
2017-11-28T21:16:38.418Z,32.57
2017-11-28T21:19:06.510Z,25.73
2017-11-28T21:21:34.635Z,29.87
2017-11-28T21:24:03.496Z,30.10
2017-11-28T21:26:31.639Z,28.30
2017-11-28T21:28:59.770Z,31.63
2017-11-28T21:31:28.666Z,32.43
2017-11-28T21:33:57.569Z,29.57
2017-11-28T21:36:25.672Z,30.90
2017-11-28T21:38:53.767Z,31.70
2017-11-28T21:41:21.888Z,30.60
2017-11-28T21:43:49.986Z,28.60
2017-11-28T21:46:18.022Z,31.93
2017-11-28T21:48:46.176Z,26.90
2017-11-28T21:51:14.786Z,32.00
2017-11-28T21:53:44.041Z,30.10
2017-11-28T21:56:12.232Z,30.50
2017-11-28T21:58:40.327Z,31.70
2017-11-28T22:01:09.230Z,28.80
2017-11-28T22:03:37.237Z,32.67
2017-11-28T22:06:05.295Z,32.30
2017-11-28T22:08:33.396Z,30.70
2017-11-28T22:11:01.518Z,31.93
2017-11-28T22:13:29.582Z,28.40
2017-11-28T22:15:58.458Z,34.10
2017-11-28T22:18:27.349Z,32.93
2017-11-28T22:20:56.223Z,33.97
2017-11-28T22:23:24.361Z,31.20
2017-11-28T22:25:52.494Z,34.50
2017-11-28T22:28:21.305Z,29.00
2017-11-28T22:30:49.363Z,31.63
2017-11-28T22:33:18.306Z,35.63
2017-11-28T22:35:46.496Z,33.47
2017-11-28T22:38:14.579Z,29.80
2017-11-28T22:40:43.425Z,30.67
2017-11-28T22:43:11.538Z,34.50
2017-11-28T22:45:39.640Z,33.00
2017-11-28T22:48:07.747Z,34.83
2017-11-28T22:50:35.879Z,35.90
2017-11-28T22:53:03.976Z,33.80
2017-11-28T22:55:32.115Z,32.17
2017-11-28T22:58:01.047Z,31.27
2017-11-28T23:00:29.148Z,34.30
2017-11-28T23:02:57.206Z,32.37
2017-11-28T23:05:25.305Z,36.10
2017-11-28T23:07:53.358Z,34.70
2017-11-28T23:10:21.548Z,31.10
2017-11-28T23:12:49.662Z,34.17
2017-11-28T23:15:17.771Z,31.73
2017-11-28T23:17:45.871Z,31.57
2017-11-28T23:20:13.970Z,35.50
2017-11-28T23:22:42.816Z,34.63
2017-11-28T23:25:10.821Z,30.23
2017-11-28T23:27:39.683Z,29.43
2017-11-28T23:30:07.691Z,30.43
2017-11-28T23:32:36.581Z,30.20
2017-11-28T23:35:05.711Z,40.93
2017-11-28T23:37:34.075Z,35.20
2017-11-28T23:40:02.182Z,37.97
2017-11-28T23:42:31.281Z,34.80
2017-11-28T23:44:59.386Z,34.87
2017-11-28T23:47:28.274Z,33.07
2017-11-28T23:49:56.388Z,35.37
2017-11-28T23:52:25.328Z,34.43
2017-11-28T23:54:53.587Z,35.27
2017-11-28T23:57:21.724Z,39.93
2017-11-28T23:59:49.713Z,39.70
